Time;durP1;ratioP1;P1;durP2;ratioP2;P2;SDS_P1;SDS_P2;PMS_P1;PMS_P2;Temp;Humidity;BMP_temperature;BMP_pressure;BME280_temperature;BME280_humidity;BME280_pressure;Samples;Min_cycle;Max_cycle;Signal;HPM_P1;HPM_P2
2022/09/23 00:02:06;;;;;;;26.50;14.82;;;6.30;99.90;;;;;;5080709;28;20293;-67
2022/09/23 00:04:36;;;;;;;18.02;12.55;;;6.40;99.90;;;;;;5075106;28;20207;-68
2022/09/23 00:07:05;;;;;;;21.67;15.68;;;6.40;99.90;;;;;;5077007;28;20230;-69
2022/09/23 00:09:34;;;;;;;17.08;12.85;;;6.40;99.90;;;;;;5088632;28;20191;-68
2022/09/23 00:12:02;;;;;;;18.23;12.77;;;6.40;99.90;;;;;;5095011;28;20547;-69
2022/09/23 00:14:38;;;;;;;16.30;11.43;;;6.50;99.90;;;;;;5094929;28;20541;-68
2022/09/23 00:17:06;;;;;;;16.52;12.75;;;6.40;99.90;;;;;;5117532;23;20211;-68
2022/09/23 00:19:39;;;;;;;15.25;12.32;;;6.40;99.90;;;;;;5003735;28;20680;-68
2022/09/23 00:22:07;;;;;;;21.88;11.55;;;6.30;99.90;;;;;;5004920;28;20208;-67
2022/09/23 00:24:36;;;;;;;13.35;10.50;;;6.30;99.90;;;;;;5006095;28;20210;-68
2022/09/23 00:27:05;;;;;;;14.77;10.48;;;6.30;99.90;;;;;;5012487;28;20194;-67
2022/09/23 00:29:35;;;;;;;16.42;10.00;;;6.30;99.90;;;;;;5012837;28;20277;-66
2022/09/23 00:32:04;;;;;;;12.77;9.18;;;6.30;99.90;;;;;;5013115;28;20209;-67
2022/09/23 00:34:33;;;;;;;11.25;8.13;;;6.40;99.90;;;;;;5016491;28;20224;-68
2022/09/23 00:37:03;;;;;;;11.40;8.60;;;6.40;99.90;;;;;;5014285;28;20202;-68
2022/09/23 00:39:32;;;;;;;12.07;9.02;;;6.40;99.90;;;;;;5016151;28;20241;-68
2022/09/23 00:42:00;;;;;;;11.55;8.27;;;6.40;99.90;;;;;;5021366;28;20202;-67
2022/09/23 00:44:47;;;;;;;12.93;9.45;;;6.40;99.90;;;;;;5015180;28;20297;-68
2022/09/23 00:47:23;;;;;;;11.70;8.85;;;6.40;99.90;;;;;;5013034;28;20546;-67
2022/09/23 00:50:00;;;;;;;14.55;8.55;;;6.40;99.90;;;;;;5021852;28;20193;-67
2022/09/23 00:52:31;;;;;;;10.90;8.98;;;6.50;99.90;;;;;;5023898;28;20744;-67
2022/09/23 00:55:03;;;;;;;12.65;9.00;;;6.40;99.90;;;;;;5019454;28;20216;-67
2022/09/23 00:57:33;;;;;;;13.00;8.48;;;6.40;99.90;;;;;;5019724;28;20201;-67
2022/09/23 01:00:02;;;;;;;15.98;9.90;;;6.40;99.90;;;;;;5008979;28;20204;-67
2022/09/23 01:02:31;;;;;;;15.90;9.55;;;6.50;99.90;;;;;;5012154;28;20271;-67
2022/09/23 01:05:03;;;;;;;14.65;9.70;;;6.50;99.90;;;;;;5015218;28;20213;-67
2022/09/23 01:07:34;;;;;;;14.27;9.65;;;6.50;99.90;;;;;;4997053;28;20300;-69
2022/09/23 01:10:04;;;;;;;15.10;10.15;;;6.50;99.90;;;;;;5015159;28;20248;-67
2022/09/23 01:12:46;;;;;;;16.80;10.93;;;6.50;99.90;;;;;;5027941;28;20192;-67
2022/09/23 01:15:21;;;;;;;15.73;11.13;;;6.50;99.90;;;;;;5016424;28;20577;-67
2022/09/23 01:17:57;;;;;;;10.85;9.02;;;6.40;99.90;;;;;;5013354;28;20296;-68
2022/09/23 01:20:58;;;;;;;10.15;8.63;;;6.40;99.90;;;;;;5006883;28;20215;-67
2022/09/23 01:24:02;;;;;;;14.50;9.30;;;6.40;99.90;;;;;;5004556;28;20572;-67
2022/09/23 01:27:01;;;;;;;18.15;10.90;;;6.40;99.90;;;;;;5006545;28;20198;-67
2022/09/23 01:30:09;;;;;;;14.65;10.95;;;6.20;99.90;;;;;;5001092;28;20196;-67
2022/09/23 01:32:52;;;;;;;15.32;9.73;;;6.20;99.90;;;;;;4996816;28;20189;-68
2022/09/23 01:35:27;;;;;;;13.40;10.13;;;6.30;99.90;;;;;;5018435;28;20221;-67
2022/09/23 01:38:04;;;;;;;15.43;12.35;;;6.20;99.90;;;;;;5020766;28;20196;-68
2022/09/23 01:40:51;;;;;;;16.73;11.55;;;6.10;99.90;;;;;;5022781;28;20597;-68
2022/09/23 01:43:24;;;;;;;12.43;9.13;;;6.00;99.90;;;;;;5016872;28;20202;-68
2022/09/23 01:45:58;;;;;;;15.43;11.98;;;6.00;99.90;;;;;;5017783;28;20406;-68
2022/09/23 01:48:32;;;;;;;16.58;10.27;;;6.00;99.90;;;;;;5018486;28;20188;-69
2022/09/23 01:51:06;;;;;;;16.08;11.27;;;6.10;99.90;;;;;;5012161;28;20185;-68
2022/09/23 01:53:42;;;;;;;13.30;10.55;;;5.90;99.90;;;;;;4995293;28;20194;-68
2022/09/23 01:56:15;;;;;;;17.23;11.73;;;6.00;99.90;;;;;;5014602;28;20571;-67
2022/09/23 01:59:08;;;;;;;15.73;11.25;;;5.90;99.90;;;;;;4983423;28;20226;-68
2022/09/23 02:02:19;;;;;;;12.55;10.13;;;5.90;99.90;;;;;;5024460;28;20214;-66
2022/09/23 02:05:17;;;;;;;15.45;10.75;;;5.80;99.90;;;;;;5004756;28;20223;-68
2022/09/23 02:07:49;;;;;;;14.23;10.88;;;5.80;99.90;;;;;;5011292;28;20199;-68
2022/09/23 02:10:23;;;;;;;14.65;9.88;;;5.90;99.90;;;;;;5011201;28;20189;-68
2022/09/23 02:12:56;;;;;;;18.98;9.95;;;5.90;99.90;;;;;;5002928;28;20204;-68
2022/09/23 02:15:29;;;;;;;12.57;11.27;;;5.70;99.90;;;;;;5010773;28;20217;-69
2022/09/23 02:18:02;;;;;;;11.40;9.35;;;5.60;99.90;;;;;;5015075;28;20206;-68
2022/09/23 02:20:35;;;;;;;13.23;10.63;;;5.60;99.90;;;;;;5015315;28;20217;-67
2022/09/23 02:23:08;;;;;;;20.20;11.82;;;5.70;99.90;;;;;;4993330;28;20438;-68
2022/09/23 02:25:46;;;;;;;10.30;8.77;;;5.70;99.90;;;;;;5018024;28;20218;-67
2022/09/23 02:31:47;;;;;;;12.60;10.05;;;5.70;99.90;;;;;;4994925;28;20202;-68
2022/09/23 02:34:22;;;;;;;17.67;10.20;;;5.60;99.90;;;;;;4997010;28;20469;-68
2022/09/23 02:37:03;;;;;;;18.73;11.25;;;5.60;99.90;;;;;;5012568;28;20194;-68
2022/09/23 02:39:38;;;;;;;14.98;10.27;;;5.60;99.90;;;;;;5025868;28;20268;-68
2022/09/23 02:42:09;;;;;;;12.52;10.65;;;5.60;99.90;;;;;;5027639;28;20209;-69
2022/09/23 02:44:38;;;;;;;15.77;9.77;;;5.60;99.90;;;;;;5027436;28;20770;-67
2022/09/23 02:47:09;;;;;;;12.50;10.13;;;5.50;99.90;;;;;;5008882;28;20179;-67
2022/09/23 02:49:37;;;;;;;14.00;8.65;;;5.60;99.90;;;;;;5007509;28;20198;-67
2022/09/23 02:52:07;;;;;;;13.40;10.60;;;5.60;99.90;;;;;;4986938;28;20225;-67
2022/09/23 02:54:37;;;;;;;14.60;10.07;;;5.50;99.90;;;;;;5010859;28;20224;-67
2022/09/23 02:57:08;;;;;;;23.13;12.82;;;5.40;99.90;;;;;;5016889;28;20278;-67
2022/09/23 02:59:38;;;;;;;14.98;12.25;;;5.40;99.90;;;;;;4997967;28;20206;-67
2022/09/23 03:02:27;;;;;;;17.25;11.32;;;5.30;99.90;;;;;;5007754;28;20209;-66
2022/09/23 03:05:05;;;;;;;11.98;9.07;;;5.30;99.90;;;;;;5023487;28;20301;-68
2022/09/23 03:07:46;;;;;;;15.75;9.75;;;5.30;99.90;;;;;;5014923;28;20204;-67
2022/09/23 03:10:21;;;;;;;12.10;9.40;;;5.30;99.90;;;;;;5029217;28;20264;-69
2022/09/23 03:12:56;;;;;;;12.60;8.93;;;5.40;99.90;;;;;;5018415;28;20649;-67
2022/09/23 03:15:32;;;;;;;11.93;9.27;;;5.40;99.90;;;;;;5013617;28;20225;-67
2022/09/23 03:18:10;;;;;;;11.90;8.77;;;5.50;99.90;;;;;;5027489;28;20207;-67
2022/09/23 03:20:44;;;;;;;11.85;8.30;;;5.50;99.90;;;;;;5034791;28;20212;-67
2022/09/23 03:23:17;;;;;;;13.50;9.35;;;5.50;99.90;;;;;;5029073;28;20304;-67
2022/09/23 03:25:49;;;;;;;18.38;9.90;;;5.50;99.90;;;;;;5032710;28;20279;-66
2022/09/23 03:28:21;;;;;;;11.23;9.43;;;5.50;99.90;;;;;;5017031;28;20743;-68
2022/09/23 03:30:51;;;;;;;13.77;8.93;;;5.40;99.90;;;;;;5034725;28;20224;-68
2022/09/23 03:33:27;;;;;;;11.60;7.88;;;5.40;99.90;;;;;;5016674;28;20193;-68
2022/09/23 03:38:52;;;;;;;16.73;9.43;;;5.50;99.90;;;;;;4996595;28;20233;-68
2022/09/23 03:41:27;;;;;;;12.43;9.00;;;5.40;99.90;;;;;;5003351;28;20523;-68
2022/09/23 03:43:57;;;;;;;12.98;8.60;;;5.50;99.90;;;;;;5013854;28;20193;-67
2022/09/23 03:46:28;;;;;;;12.88;7.75;;;5.40;99.90;;;;;;5033526;28;20278;-67
2022/09/23 03:49:04;;;;;;;12.80;8.30;;;5.40;99.90;;;;;;4976858;28;20199;-67
2022/09/23 03:51:32;;;;;;;18.05;9.15;;;5.40;99.90;;;;;;5025780;28;20185;-68
2022/09/23 03:54:02;;;;;;;18.65;11.35;;;5.30;99.90;;;;;;5003145;28;20651;-67
2022/09/23 03:56:31;;;;;;;12.68;8.95;;;5.30;99.90;;;;;;4996184;28;20244;-69
2022/09/23 03:58:59;;;;;;;11.55;7.68;;;5.20;99.90;;;;;;4996358;28;20205;-68
2022/09/23 04:01:28;;;;;;;12.27;10.18;;;5.20;99.90;;;;;;4995511;28;20217;-68
2022/09/23 04:03:57;;;;;;;8.90;7.85;;;5.20;99.90;;;;;;4995302;28;20198;-68
2022/09/23 04:06:25;;;;;;;14.20;9.35;;;5.20;99.90;;;;;;5012796;28;20254;-68
2022/09/23 04:08:54;;;;;;;14.30;9.27;;;5.20;99.90;;;;;;5012732;28;20649;-68
2022/09/23 04:11:23;;;;;;;12.00;8.25;;;5.20;99.90;;;;;;5012752;28;20205;-67
2022/09/23 04:13:52;;;;;;;10.73;8.05;;;5.20;99.90;;;;;;4988204;28;20242;-67
2022/09/23 04:16:21;;;;;;;11.48;8.00;;;5.20;99.90;;;;;;5012554;28;20265;-68
2022/09/23 04:18:49;;;;;;;15.85;8.07;;;5.30;99.90;;;;;;4994872;28;20566;-68
2022/09/23 04:21:18;;;;;;;13.02;9.88;;;5.20;99.90;;;;;;5012255;28;20266;-67
2022/09/23 04:23:47;;;;;;;12.93;8.98;;;5.20;99.90;;;;;;4994773;28;20221;-68
2022/09/23 04:26:15;;;;;;;11.55;8.65;;;5.20;99.90;;;;;;5012037;28;20261;-67
2022/09/23 04:28:45;;;;;;;14.27;10.43;;;5.20;99.90;;;;;;5010604;28;20201;-67
2022/09/23 04:31:14;;;;;;;16.13;10.25;;;5.20;99.90;;;;;;5009607;28;20202;-67
2022/09/23 04:33:42;;;;;;;11.68;8.50;;;5.30;99.90;;;;;;4975089;28;20229;-67
2022/09/23 04:36:11;;;;;;;12.43;8.40;;;5.40;99.90;;;;;;5006639;28;20277;-67
2022/09/23 04:38:39;;;;;;;14.27;8.88;;;5.40;99.90;;;;;;5012657;28;20182;-67
2022/09/23 04:41:09;;;;;;;12.70;9.50;;;5.20;99.90;;;;;;5011840;28;20204;-67
2022/09/23 04:43:38;;;;;;;10.40;9.32;;;5.20;99.90;;;;;;5010481;28;20264;-68
2022/09/23 04:46:10;;;;;;;17.02;8.57;;;5.20;99.90;;;;;;4974354;28;20696;-67
2022/09/23 04:48:40;;;;;;;11.25;8.90;;;5.20;99.90;;;;;;4992859;28;20277;-67
2022/09/23 04:51:10;;;;;;;17.80;8.50;;;5.20;99.90;;;;;;5009264;28;20182;-67
2022/09/23 04:53:41;;;;;;;11.82;9.35;;;5.20;99.90;;;;;;4997364;28;20191;-67
2022/09/23 04:56:14;;;;;;;15.02;10.02;;;5.20;99.90;;;;;;4991406;28;20172;-67
2022/09/23 04:58:43;;;;;;;11.93;10.63;;;5.20;99.90;;;;;;4994725;28;20201;-69
2022/09/23 05:01:15;;;;;;;13.38;9.10;;;5.20;99.90;;;;;;5011057;28;20268;-68
2022/09/23 05:03:45;;;;;;;11.52;8.68;;;5.10;99.90;;;;;;5011536;28;20665;-67
2022/09/23 05:06:15;;;;;;;12.38;10.00;;;5.10;99.90;;;;;;5006697;28;20203;-68
2022/09/23 05:08:49;;;;;;;25.52;13.10;;;5.10;99.90;;;;;;4991740;28;20198;-68
2022/09/23 05:11:18;;;;;;;28.90;16.25;;;5.20;99.90;;;;;;4990343;28;20278;-68
2022/09/23 05:13:48;;;;;;;23.13;12.23;;;5.20;99.90;;;;;;4991835;28;20794;-68
2022/09/23 05:16:18;;;;;;;22.80;12.30;;;5.20;99.90;;;;;;4992128;28;20203;-67
2022/09/23 05:18:49;;;;;;;19.88;10.55;;;5.20;99.90;;;;;;4991955;28;20217;-67
2022/09/23 05:21:19;;;;;;;17.35;9.23;;;5.20;99.90;;;;;;4991703;28;20183;-67
2022/09/23 05:23:48;;;;;;;15.75;10.07;;;5.30;99.90;;;;;;4991481;28;20246;-68
2022/09/23 05:26:17;;;;;;;17.77;10.45;;;5.30;99.90;;;;;;4991687;28;20199;-67
2022/09/23 05:28:45;;;;;;;20.35;11.20;;;5.40;99.90;;;;;;4974282;28;20602;-68
2022/09/23 05:31:17;;;;;;;63.10;26.20;;;5.50;99.90;;;;;;4990103;28;20608;-68
2022/09/23 05:33:50;;;;;;;61.10;27.98;;;5.60;99.90;;;;;;4991215;28;20686;-67
2022/09/23 05:36:20;;;;;;;51.42;27.00;;;5.60;99.90;;;;;;4991584;28;20181;-67
2022/09/23 05:38:50;;;;;;;53.95;23.40;;;5.70;99.90;;;;;;4990733;28;20194;-67
2022/09/23 05:41:21;;;;;;;53.92;28.00;;;5.80;99.90;;;;;;5005368;28;20662;-68
2022/09/23 05:43:51;;;;;;;53.70;26.77;;;5.90;99.90;;;;;;5011056;28;20210;-67
2022/09/23 05:46:23;;;;;;;39.53;23.77;;;6.00;99.90;;;;;;5011304;28;20713;-68
2022/09/23 05:48:52;;;;;;;28.40;15.70;;;6.10;99.90;;;;;;5011280;28;20736;-68
2022/09/23 05:51:22;;;;;;;13.75;9.05;;;6.20;99.90;;;;;;4986748;28;20207;-66
2022/09/23 05:53:57;;;;;;;17.88;11.75;;;6.30;99.90;;;;;;5009163;28;20745;-67
2022/09/23 05:56:27;;;;;;;21.60;13.20;;;6.50;99.90;;;;;;4992461;28;20626;-67
2022/09/23 05:58:57;;;;;;;17.98;11.55;;;6.70;99.90;;;;;;4990495;28;20205;-67
2022/09/23 06:01:44;;;;;;;14.02;10.60;;;6.80;99.90;;;;;;4973275;28;20253;-68
2022/09/23 06:04:14;;;;;;;17.05;9.70;;;7.10;99.90;;;;;;4973082;28;20334;-66
2022/09/23 06:06:43;;;;;;;11.45;9.43;;;7.30;99.90;;;;;;4987246;28;20290;-67
2022/09/23 06:09:13;;;;;;;11.85;8.55;;;7.50;99.90;;;;;;4990345;28;20190;-67
2022/09/23 06:11:42;;;;;;;11.55;9.25;;;7.60;99.90;;;;;;4990185;28;20178;-67
2022/09/23 06:14:13;;;;;;;12.80;9.57;;;7.80;99.90;;;;;;4988662;28;20447;-67
2022/09/23 06:16:43;;;;;;;9.88;8.40;;;7.90;99.90;;;;;;5009095;28;20668;-67
2022/09/23 06:19:12;;;;;;;10.57;9.20;;;8.10;99.90;;;;;;5010138;28;20552;-67
2022/09/23 06:21:40;;;;;;;10.80;7.13;;;8.20;99.90;;;;;;4993566;28;20198;-68
2022/09/23 06:24:09;;;;;;;9.70;8.55;;;8.40;99.90;;;;;;4995709;28;20301;-67
2022/09/23 06:26:44;;;;;;;10.32;6.93;;;8.50;99.90;;;;;;5002681;28;20384;-66
2022/09/23 06:29:13;;;;;;;11.05;8.73;;;8.60;99.90;;;;;;4993749;28;20199;-67
2022/09/23 06:31:43;;;;;;;13.77;8.60;;;8.80;99.90;;;;;;5004750;28;20190;-67
2022/09/23 06:34:13;;;;;;;9.10;6.90;;;9.00;99.90;;;;;;4999388;28;20263;-67
2022/09/23 06:36:42;;;;;;;16.13;12.18;;;9.10;99.90;;;;;;4992719;28;20198;-67
2022/09/23 06:39:14;;;;;;;15.20;11.07;;;9.30;99.90;;;;;;5023880;28;20209;-67
2022/09/23 06:41:43;;;;;;;12.17;9.00;;;9.40;99.90;;;;;;5015038;28;20198;-67
2022/09/23 06:44:14;;;;;;;9.70;8.07;;;9.60;44.40;;;;;;5002067;28;20478;-67
2022/09/23 06:46:44;;;;;;;13.30;9.60;;;9.80;1.00;;;;;;4989826;28;20768;-67
2022/09/23 06:49:13;;;;;;;10.43;7.90;;;10.00;1.00;;;;;;4989759;28;20822;-68
2022/09/23 06:51:41;;;;;;;13.63;8.77;;;10.10;1.00;;;;;;4988311;28;20438;-67
2022/09/23 06:54:10;;;;;;;8.40;6.37;;;10.30;1.00;;;;;;4988292;28;20432;-68
2022/09/23 06:56:39;;;;;;;7.97;6.70;;;10.40;99.90;;;;;;4988221;28;20438;-67
2022/09/23 06:59:11;;;;;;;10.20;6.40;;;10.50;99.90;;;;;;4989651;28;20447;-68
2022/09/23 07:01:40;;;;;;;6.80;6.13;;;10.70;99.90;;;;;;4991520;28;20391;-67
2022/09/23 07:04:10;;;;;;;8.30;6.77;;;10.90;99.90;;;;;;4975930;28;20504;-68
2022/09/23 07:06:39;;;;;;;12.33;6.00;;;11.10;99.90;;;;;;4988252;28;20418;-68
2022/09/23 07:09:09;;;;;;;6.97;5.30;;;11.20;99.90;;;;;;4994634;28;20528;-67
2022/09/23 07:11:38;;;;;;;8.40;7.10;;;11.30;99.90;;;;;;5008948;28;20423;-67
2022/09/23 07:14:07;;;;;;;8.40;6.27;;;11.40;99.90;;;;;;4991625;28;20498;-67
2022/09/23 07:16:35;;;;;;;9.53;6.03;;;11.60;99.90;;;;;;5007823;28;20422;-68
2022/09/23 07:19:04;;;;;;;9.47;6.70;;;11.70;99.90;;;;;;4991848;28;20690;-67
2022/09/23 07:21:45;;;;;;;8.20;6.80;;;11.90;99.90;;;;;;4990926;28;20437;-67
2022/09/23 07:24:24;;;;;;;7.70;6.90;;;11.90;99.90;;;;;;5009441;28;20480;-68
2022/09/23 07:26:56;;;;;;;7.77;6.20;;;12.10;99.90;;;;;;5014329;28;20407;-68
2022/09/23 07:29:28;;;;;;;9.70;5.50;;;12.00;99.90;;;;;;5032053;28;20436;-68
2022/09/23 07:32:11;;;;;;;7.37;6.27;;;12.10;99.90;;;;;;5017055;28;20431;-67
2022/09/23 07:34:47;;;;;;;7.33;5.30;;;12.20;99.90;;;;;;4997861;28;20460;-68
2022/09/23 07:37:20;;;;;;;7.53;5.73;;;12.50;99.90;;;;;;5013175;28;20922;-67
2022/09/23 07:39:53;;;;;;;7.80;5.80;;;12.70;99.90;;;;;;5010833;28;20419;-67
2022/09/23 07:42:24;;;;;;;5.80;4.80;;;12.80;99.90;;;;;;4998615;28;20876;-67
2022/09/23 07:44:54;;;;;;;12.53;4.97;;;13.00;99.90;;;;;;4994783;28;20473;-67
2022/09/23 07:47:22;;;;;;;6.10;5.03;;;13.00;99.90;;;;;;5011988;28;21046;-68
2022/09/23 07:49:53;;;;;;;8.87;7.30;;;13.10;98.90;;;;;;5012295;28;20528;-67
2022/09/23 07:52:22;;;;;;;6.10;5.13;;;13.30;98.00;;;;;;5012761;28;20391;-67
2022/09/23 07:54:51;;;;;;;5.87;4.40;;;13.30;95.80;;;;;;4983592;28;20465;-67
2022/09/23 07:57:20;;;;;;;6.90;5.40;;;13.60;94.70;;;;;;4991153;28;20448;-68
2022/09/23 07:59:48;;;;;;;5.43;4.80;;;13.70;90.80;;;;;;4996874;28;20419;-68
2022/09/23 08:02:17;;;;;;;5.10;4.60;;;13.90;87.20;;;;;;4992977;28;20404;-68
2022/09/23 08:04:45;;;;;;;5.40;4.70;;;14.00;79.80;;;;;;5011360;28;20455;-66
2022/09/23 08:07:19;;;;;;;8.70;6.27;;;14.00;72.80;;;;;;4993584;28;20426;-67
2022/09/23 08:09:49;;;;;;;5.33;4.80;;;14.10;77.10;;;;;;4999833;28;20430;-69
2022/09/23 08:12:18;;;;;;;5.43;4.93;;;14.20;74.20;;;;;;4991191;28;20454;-69
2022/09/23 08:14:47;;;;;;;5.30;4.80;;;14.40;68.80;;;;;;5010660;28;20427;-68
2022/09/23 08:17:15;;;;;;;7.13;6.43;;;14.40;61.00;;;;;;4993776;28;20480;-68
2022/09/23 08:19:46;;;;;;;8.60;6.17;;;14.50;58.40;;;;;;5006548;28;20432;-67
2022/09/23 08:22:15;;;;;;;6.17;5.57;;;14.60;54.50;;;;;;5004354;28;20454;-67
2022/09/23 08:24:43;;;;;;;7.53;5.70;;;14.80;52.80;;;;;;5010223;28;20841;-67
2022/09/23 08:27:13;;;;;;;10.60;6.23;;;14.70;47.20;;;;;;4994164;28;20435;-67
2022/09/23 08:29:42;;;;;;;9.47;6.20;;;14.70;47.20;;;;;;5012139;28;20433;-67
2022/09/23 08:32:10;;;;;;;8.30;7.50;;;14.70;46.60;;;;;;5004702;28;20768;-68
2022/09/23 08:34:40;;;;;;;8.03;6.47;;;14.70;46.20;;;;;;4981771;28;20466;-69
2022/09/23 08:37:12;;;;;;;7.87;5.67;;;14.80;43.20;;;;;;4999329;28;20448;-68
2022/09/23 08:39:41;;;;;;;5.70;4.70;;;14.80;45.10;;;;;;4996809;28;20942;-66
2022/09/23 08:42:19;;;;;;;6.10;5.17;;;14.90;41.90;;;;;;4990381;28;20775;-68
2022/09/23 08:44:52;;;;;;;5.77;5.20;;;14.90;36.20;;;;;;4991400;28;20520;-68
2022/09/23 08:47:26;;;;;;;5.50;5.00;;;15.00;33.40;;;;;;4975751;28;20451;-67
2022/09/23 08:50:00;;;;;;;6.53;4.20;;;15.10;31.00;;;;;;4992928;28;20422;-68
2022/09/23 08:52:34;;;;;;;4.47;4.07;;;15.10;29.50;;;;;;5006096;28;20511;-67
2022/09/23 08:55:04;;;;;;;5.03;3.57;;;15.00;25.70;;;;;;5002077;28;20872;-68
2022/09/23 08:57:43;;;;;;;6.03;5.30;;;15.10;25.20;;;;;;4997673;28;20858;-67
2022/09/23 09:00:22;;;;;;;11.63;4.40;;;15.20;25.20;;;;;;5009757;28;20427;-68
2022/09/23 09:02:56;;;;;;;7.43;4.60;;;15.30;24.40;;;;;;4993297;28;20506;-68
2022/09/23 09:05:30;;;;;;;8.33;5.80;;;15.30;24.20;;;;;;5009487;28;20484;-69
2022/09/23 09:08:05;;;;;;;5.63;5.03;;;15.40;21.40;;;;;;5010060;28;20515;-68
2022/09/23 09:10:45;;;;;;;10.70;6.00;;;15.40;21.10;;;;;;5010381;28;20455;-68
2022/09/23 09:13:25;;;;;;;14.93;5.63;;;15.60;19.10;;;;;;4989049;28;20455;-68
2022/09/23 09:16:16;;;;;;;9.93;4.90;;;15.50;17.50;;;;;;4986135;28;20952;-67
2022/09/23 09:18:57;;;;;;;6.00;5.07;;;15.50;15.50;;;;;;4993001;28;20500;-67
2022/09/23 09:21:36;;;;;;;5.40;4.17;;;15.60;15.70;;;;;;4976250;28;20428;-68
2022/09/23 09:24:14;;;;;;;8.50;4.43;;;15.60;14.40;;;;;;4991308;28;20450;-68
2022/09/23 09:26:43;;;;;;;10.20;4.60;;;15.70;13.10;;;;;;4991150;28;20435;-67
2022/09/23 09:29:18;;;;;;;6.00;4.97;;;15.80;13.40;;;;;;4986201;28;20534;-67
2022/09/23 09:32:16;;;;;;;7.30;4.97;;;15.90;10.00;;;;;;5010590;28;20428;-67
2022/09/23 09:34:53;;;;;;;8.70;4.70;;;16.00;8.80;;;;;;4998058;28;20480;-68
2022/09/23 09:37:29;;;;;;;7.03;4.43;;;16.10;5.70;;;;;;4974117;28;20447;-70
2022/09/23 09:39:59;;;;;;;5.87;4.97;;;16.00;4.40;;;;;;5004473;28;20518;-68
2022/09/23 09:42:39;;;;;;;5.93;4.93;;;16.10;3.90;;;;;;4992770;28;20926;-67
2022/09/23 09:45:19;;;;;;;31.70;28.10;;;16.20;2.70;;;;;;5010649;28;20964;-67
2022/09/23 09:47:55;;;;;;;81.37;45.50;;;16.10;1.00;;;;;;5009586;28;20873;-68
2022/09/23 09:50:42;;;;;;;38.63;32.93;;;16.00;1.00;;;;;;5010043;28;20421;-68
2022/09/23 09:53:22;;;;;;;9.53;7.70;;;16.20;1.00;;;;;;5010164;28;20903;-68
2022/09/23 09:56:01;;;;;;;9.37;7.03;;;16.30;1.00;;;;;;4991990;28;20814;-67
2022/09/23 09:58:44;;;;;;;4.57;4.03;;;16.40;1.00;;;;;;4999583;28;20445;-68
2022/09/23 10:01:23;;;;;;;4.40;2.97;;;16.40;1.00;;;;;;5011184;28;20461;-68
2022/09/23 10:03:55;;;;;;;7.60;4.13;;;16.60;1.00;;;;;;5009152;28;20405;-68
2022/09/23 10:06:31;;;;;;;4.23;3.37;;;16.60;1.00;;;;;;5003317;28;20442;-68
2022/09/23 10:09:20;;;;;;;3.67;2.90;;;16.60;1.00;;;;;;4996007;28;20433;-67
2022/09/23 10:12:11;;;;;;;2.00;1.70;;;16.90;1.00;;;;;;4991952;28;20407;-69
2022/09/23 10:14:41;;;;;;;2.20;1.70;;;17.30;1.00;;;;;;4980044;28;20455;-68
2022/09/23 10:17:19;;;;;;;2.70;1.57;;;17.20;1.00;;;;;;5001795;28;21093;-69
2022/09/23 10:19:59;;;;;;;2.00;1.40;;;17.40;1.00;;;;;;4985541;28;20943;-68
2022/09/23 10:22:32;;;;;;;2.50;1.47;;;17.60;1.00;;;;;;5021137;28;20403;-68
2022/09/23 10:25:06;;;;;;;1.97;1.60;;;17.70;1.00;;;;;;5007245;28;20877;-68
2022/09/23 10:27:37;;;;;;;7.27;5.47;;;17.60;1.00;;;;;;5029018;28;20402;-68
2022/09/23 10:30:20;;;;;;;4.03;2.57;;;17.50;1.00;;;;;;5023237;28;20467;-68
2022/09/23 10:32:53;;;;;;;2.53;1.90;;;17.40;1.00;;;;;;5009740;28;20419;-68
2022/09/23 10:35:23;;;;;;;6.20;2.20;;;17.40;1.00;;;;;;4994268;28;20522;-69
2022/09/23 10:37:53;;;;;;;2.20;1.70;;;17.40;1.00;;;;;;5023146;28;20810;-69
2022/09/23 10:46:38;;;;;;;2.83;2.20;;;17.50;1.00;;;;;;5002166;28;20994;-69
2022/09/23 10:49:26;;;;;;;7.47;1.80;;;17.30;1.00;;;;;;5020704;28;20447;-68
2022/09/23 10:52:09;;;;;;;2.80;1.77;;;17.40;1.00;;;;;;4997395;28;20795;-69
2022/09/23 10:54:55;;;;;;;7.60;2.33;;;17.50;1.00;;;;;;5009599;28;21005;-68
2022/09/23 10:57:39;;;;;;;3.50;2.17;;;17.60;1.00;;;;;;5015719;28;20975;-69
2022/09/23 11:00:35;;;;;;;3.87;3.33;;;17.60;1.00;;;;;;5008446;28;20542;-68
2022/09/23 11:03:31;;;;;;;3.40;2.27;;;17.90;1.00;;;;;;4997059;28;21026;-68
2022/09/23 11:06:12;;;;;;;2.50;2.07;;;17.70;1.00;;;;;;5018122;28;20442;-74
2022/09/23 11:09:03;;;;;;;2.50;1.90;;;17.60;1.00;;;;;;5003472;28;20736;-69
2022/09/23 11:11:47;;;;;;;2.37;2.17;;;17.60;1.00;;;;;;5021649;28;20439;-69
2022/09/23 11:14:40;;;;;;;3.33;2.10;;;17.90;1.00;;;;;;4996654;28;20497;-68
2022/09/23 11:17:28;;;;;;;3.00;2.63;;;18.00;1.00;;;;;;5002153;28;20458;-69
2022/09/23 11:20:24;;;;;;;4.13;2.63;;;18.10;1.00;;;;;;5021416;28;20428;-69
2022/09/23 11:23:22;;;;;;;4.80;2.23;;;18.20;1.00;;;;;;5010904;28;20453;-68
2022/09/23 11:25:57;;;;;;;2.67;1.90;;;18.40;1.00;;;;;;4999344;28;20689;-68
2022/09/23 11:28:48;;;;;;;3.00;1.57;;;18.40;1.00;;;;;;5013996;28;20432;-68
2022/09/23 11:31:30;;;;;;;3.53;2.17;;;18.30;1.00;;;;;;5017833;28;20794;-68
2022/09/23 11:34:15;;;;;;;3.53;2.53;;;18.30;1.00;;;;;;4999934;28;20437;-69
2022/09/23 11:36:49;;;;;;;3.67;2.40;;;18.30;1.00;;;;;;4989664;28;20409;-68
2022/09/23 11:39:24;;;;;;;1.93;1.57;;;18.30;1.00;;;;;;5019021;28;20442;-69
2022/09/23 11:41:56;;;;;;;3.27;2.23;;;18.20;1.00;;;;;;5018002;28;20419;-68
2022/09/23 11:44:32;;;;;;;2.63;2.10;;;18.40;1.00;;;;;;5021460;28;20473;-69
2022/09/23 11:47:06;;;;;;;2.30;1.90;;;18.10;1.00;;;;;;5015982;28;21001;-69
2022/09/23 11:49:40;;;;;;;2.73;1.80;;;18.00;1.00;;;;;;4999893;28;20498;-69
2022/09/23 11:52:18;;;;;;;3.03;2.30;;;18.10;1.00;;;;;;4994552;28;20916;-69
2022/09/23 11:54:54;;;;;;;3.90;2.27;;;18.40;1.00;;;;;;5005719;28;20523;-69
2022/09/23 11:57:31;;;;;;;2.20;1.90;;;18.70;1.00;;;;;;4987517;28;20467;-68
2022/09/23 12:00:18;;;;;;;3.60;1.80;;;18.60;1.00;;;;;;4994285;28;20955;-68
2022/09/23 12:03:05;;;;;;;2.50;2.30;;;18.30;1.00;;;;;;5011636;28;20429;-68
2022/09/23 12:05:38;;;;;;;2.07;1.87;;;18.30;1.00;;;;;;5001459;28;20526;-67
2022/09/23 12:08:16;;;;;;;3.10;2.17;;;18.30;1.00;;;;;;5018585;28;20533;-68
2022/09/23 12:10:54;;;;;;;1.70;1.60;;;18.00;1.00;;;;;;5004413;28;20413;-68
2022/09/23 12:13:31;;;;;;;2.20;2.00;;;18.00;1.00;;;;;;5019741;28;20782;-68
2022/09/23 12:16:19;;;;;;;2.63;1.90;;;18.00;1.00;;;;;;5012210;28;20765;-68
2022/09/23 12:18:59;;;;;;;6.53;2.10;;;17.90;1.00;;;;;;4985112;28;20435;-68
2022/09/23 12:21:46;;;;;;;3.20;2.50;;;17.90;1.00;;;;;;4990895;28;20427;-68
2022/09/23 12:24:45;;;;;;;2.87;2.10;;;18.30;1.00;;;;;;5007405;28;20451;-69
2022/09/23 12:27:24;;;;;;;2.93;2.23;;;18.50;1.00;;;;;;5009862;28;20512;-69
2022/09/23 12:29:57;;;;;;;2.77;2.37;;;18.40;1.00;;;;;;5004523;28;20483;-69
2022/09/23 12:32:27;;;;;;;2.17;1.60;;;18.50;1.00;;;;;;5013827;28;20581;-68
2022/09/23 12:34:56;;;;;;;2.87;2.40;;;18.60;1.00;;;;;;5008632;28;20423;-69
2022/09/23 12:37:28;;;;;;;2.07;1.53;;;18.70;1.00;;;;;;4991322;28;20427;-69
2022/09/23 12:40:18;;;;;;;3.20;1.67;;;18.60;1.00;;;;;;5021143;28;20957;-69
2022/09/23 12:42:49;;;;;;;7.23;2.27;;;18.70;1.00;;;;;;4994569;28;20416;-69
2022/09/23 12:45:38;;;;;;;2.07;1.77;;;18.90;1.00;;;;;;5015174;28;20809;-69
2022/09/23 12:48:42;;;;;;;5.20;1.70;;;18.60;1.00;;;;;;5010612;28;20535;-66
2022/09/23 12:51:17;;;;;;;2.63;1.90;;;18.70;1.00;;;;;;5013238;28;20395;-69
2022/09/23 12:53:58;;;;;;;1.90;1.40;;;18.40;1.00;;;;;;5014274;28;20464;-70
2022/09/23 12:56:49;;;;;;;5.50;2.40;;;18.40;1.00;;;;;;4995532;28;20777;-67
2022/09/23 12:59:26;;;;;;;2.03;1.87;;;18.10;1.00;;;;;;5004809;28;20449;-68
2022/09/23 13:01:56;;;;;;;2.70;1.70;;;18.00;1.00;;;;;;4991421;28;20441;-70
2022/09/23 13:07:22;;;;;;;4.93;1.47;;;17.90;1.00;;;;;;5006974;28;20807;-68
2022/09/23 13:09:55;;;;;;;2.07;1.70;;;18.00;1.00;;;;;;5012951;28;20429;-70
2022/09/23 13:12:29;;;;;;;3.47;2.13;;;18.10;1.00;;;;;;5015016;28;20462;-68
2022/09/23 13:15:05;;;;;;;3.73;2.80;;;18.20;1.00;;;;;;4998657;28;20549;-67
2022/09/23 13:17:37;;;;;;;2.03;1.70;;;18.40;1.00;;;;;;4989543;28;20450;-68
2022/09/23 13:20:27;;;;;;;2.37;2.17;;;18.10;1.00;;;;;;5011257;28;20434;-68
2022/09/23 13:23:20;;;;;;;1.83;1.63;;;18.10;1.00;;;;;;4999612;28;20887;-69
2022/09/23 13:25:51;;;;;;;3.53;1.87;;;17.80;1.00;;;;;;4992610;28;20532;-68
2022/09/23 13:28:35;;;;;;;2.00;1.70;;;17.80;1.00;;;;;;5010070;28;20457;-68
2022/09/23 13:31:06;;;;;;;4.80;2.70;;;17.80;1.00;;;;;;5010126;28;20809;-69
2022/09/23 13:33:41;;;;;;;2.93;2.10;;;17.90;1.00;;;;;;4992414;28;20436;-68
2022/09/23 13:36:13;;;;;;;3.30;2.13;;;17.90;1.00;;;;;;4992183;28;20411;-68
2022/09/23 13:38:44;;;;;;;2.93;2.30;;;17.90;1.00;;;;;;4995788;28;20422;-68
2022/09/23 13:41:16;;;;;;;2.93;2.40;;;17.90;1.00;;;;;;5004123;28;20429;-67
2022/09/23 13:43:48;;;;;;;2.13;1.67;;;17.90;1.00;;;;;;5009381;28;20424;-68